Aeroporto :
LOGIN :

Iscrizione | Disclaimer

   EN    FR    IT 

 










Sommario :    VFR   VFR Marginale   IFR   IFR Intensivo   IFR Molto Intensivo
Visibilità : 
Base nubi : 
>= 8 km
>= 3000ft
5 / 8 km
1000 / 3000 ft
1500m / 5 km
500 / 1000 ft
800 / 1500m
200 / 500 ft
< 800m
< 200 ft
Simboli :   Temporali  Nebbia  Neve Forte  Precipitazioni Forti  Vento > 20 kt
SIGMETs :   Varie  Temporali  Ghiacco  Turbolenza  Onda orograficha  Ceneri Vulcaniche







- Altitudine del aeroporto : 55 ft
- Codice IATA : DSA
- Carte del aeroporto


EGCN - Robin Hood Doncaster Sheffield

ULTIMO METAR :
  • 192020Z 22016KT CAVOK 14/06 Q1010

METARs OBSOLETI :
  • 191950Z 22016KT CAVOK 15/07 Q1010
  • 191920Z 21014KT CAVOK 15/07 Q1010
  • 191850Z 22015KT CAVOK 15/06 Q1010
  • 191820Z 22017KT CAVOK 15/06 Q1010
  • 191750Z 22018KT 9999 FEW034 16/06 Q1009

TAF TAF EGCN
Valido dal 19 a 18 ore il 20 a 18 ore UTC


191705Z 1918/2018 23018G28KT 9999 FEW025
BECMG 1919/1922 20014KT
BECMG 2001/2004 VRB04KT
TEMPO 2002/2018 6000 -RA BKN014
PROB30
TEMPO 2002/2012 4000 RA BKN009
BECMG 2009/2012 17010KT
PROB40
TEMPO 2012/2018 3000 +RA BKN006
BECMG 2016/2018 17020G32KT
Nessun NOTAM noto per questo aeroporto.
3 SIGMETs conosciuti per la FIR London (EGTT) :
 
Forte onda orograficha
EGTT SIGMET 14 VALID 192100/200100 EGRR
EGTT LONDON FIR SEV MTW FCST WI N5500 E00020 - N5347 E00134 - N5220 W00344 - N5357 W00530 - N5500 W00530 - N5500 E00020 FL030/250 STNR NC=
Turbolenza severa
EGTT SIGMET 13 VALID 191800/192100 EGRR
EGTT LONDON FIR SEV TURB FCST NW OF LINE N5347 W00530 - N5500 E00440 SFC/FL060 MOV N 10KT WKN=
Forte onda orograficha
EGTT SIGMET 12 VALID 191700/192100 EGRR
EGTT LONDON FIR SEV MTW FCST WI N5500 W00530 - N5500 W00100 - N5500 E00020 - N5312 E00223 - N5147 W00338 - N5239 W00530 - N5500 W00530 FL030/250 STNR NC=



MetMap, La meteo Aeronautica in un colpo d'occhio ! - Copyright ORBIFLY Dicembre 2007 - Disclaimer

ORBIFLY MET'MAP TEAM :

Programmazione e sviluppo : Alexandra Zaïnal
Concezione e sviluppo : Baudouin d'Aumeries
Co-Programmazione e sviluppo : Marc-Olivier Méhu
Supporto tecnico e logistico : Manuel Goepfert
Aiuto per la traduzione : Arnaldo La Scala

Contatto : metmap@orbifly.com




FONTI E CREDITI :

   NOAA